Time;durP1;ratioP1;P1;durP2;ratioP2;P2;SDS_P1;SDS_P2;PMS_P1;PMS_P2;Temp;Humidity;BMP_temperature;BMP_pressure;BME280_temperature;BME280_humidity;BME280_pressure;Samples;Min_cycle;Max_cycle;Signal;HPM_P1;HPM_P2
2022/06/02 00:02:18;;;;;;;5.53;1.60;;;16.80;99.90;;;;;;5051450;28;20488;-62
2022/06/02 00:05:01;;;;;;;5.53;1.80;;;16.90;99.90;;;;;;5050569;28;20401;-62
2022/06/02 00:07:50;;;;;;;5.93;1.90;;;16.90;99.90;;;;;;5050746;28;20413;-61
2022/06/02 00:10:25;;;;;;;6.05;2.30;;;16.90;99.90;;;;;;5051687;28;20451;-63
2022/06/02 00:13:30;;;;;;;5.47;1.77;;;16.90;99.90;;;;;;5051705;28;20551;-62
2022/06/02 00:16:12;;;;;;;5.43;1.98;;;16.90;99.90;;;;;;5051222;28;20385;-63
2022/06/02 00:18:57;;;;;;;6.90;1.80;;;16.90;99.90;;;;;;5050567;28;20409;-62
2022/06/02 00:21:51;;;;;;;6.95;1.98;;;16.90;99.90;;;;;;4982640;28;20973;-58
2022/06/02 00:24:34;;;;;;;7.03;2.00;;;16.90;99.90;;;;;;5050953;28;20428;-62
2022/06/02 00:27:09;;;;;;;5.70;2.00;;;16.90;99.90;;;;;;5051073;28;20378;-62
2022/06/02 00:30:03;;;;;;;6.40;1.80;;;16.80;99.90;;;;;;5046142;28;20401;-62
2022/06/02 00:32:43;;;;;;;6.28;1.65;;;16.80;99.90;;;;;;5032085;28;20750;-62
2022/06/02 00:35:35;;;;;;;8.13;2.40;;;16.70;99.90;;;;;;5051046;28;20398;-63
2022/06/02 00:38:06;;;;;;;7.00;2.38;;;16.70;99.90;;;;;;5042245;28;20459;-62
2022/06/02 00:40:34;;;;;;;5.90;2.40;;;16.60;99.90;;;;;;5050486;28;20389;-63
2022/06/02 00:43:05;;;;;;;6.30;2.00;;;16.60;99.90;;;;;;5050593;28;20413;-62
2022/06/02 00:45:31;;;;;;;5.40;1.80;;;16.60;99.90;;;;;;5050355;28;20481;-62
2022/06/02 00:48:12;;;;;;;6.05;2.10;;;16.60;99.90;;;;;;5051187;28;20396;-63
2022/06/02 00:51:03;;;;;;;6.40;2.10;;;16.50;99.90;;;;;;5050377;28;20413;-63
2022/06/02 00:53:41;;;;;;;5.70;2.05;;;16.40;99.90;;;;;;5050247;28;20419;-62
2022/06/02 00:59:56;;;;;;;7.13;1.90;;;16.30;99.90;;;;;;5050330;28;20455;-62
2022/06/02 01:02:24;;;;;;;5.85;1.90;;;16.20;99.90;;;;;;5040143;28;20393;-58
2022/06/02 01:04:49;;;;;;;6.95;2.10;;;16.30;99.90;;;;;;5050394;28;20943;-62
2022/06/02 01:07:55;;;;;;;6.20;2.10;;;16.20;99.90;;;;;;5050468;28;20474;-62
2022/06/02 01:10:47;;;;;;;6.40;2.20;;;16.10;99.90;;;;;;5050585;28;20484;-61
2022/06/02 01:13:37;;;;;;;6.40;2.27;;;16.20;99.90;;;;;;5050050;28;20722;-62
2022/06/02 01:16:18;;;;;;;6.57;2.20;;;16.10;99.90;;;;;;5050060;28;20396;-62
2022/06/02 01:19:25;;;;;;;6.65;2.10;;;16.10;99.90;;;;;;5049750;28;21023;-62
2022/06/02 01:22:06;;;;;;;6.50;2.10;;;16.10;99.90;;;;;;5050120;28;20463;-62
2022/06/02 01:24:32;;;;;;;6.30;2.10;;;16.10;99.90;;;;;;5037594;28;20470;-62
2022/06/02 01:27:10;;;;;;;5.95;2.10;;;16.00;99.90;;;;;;5050031;28;20397;-63
2022/06/02 01:29:59;;;;;;;6.70;2.07;;;16.00;99.90;;;;;;5048399;28;20393;-62
2022/06/02 01:32:53;;;;;;;7.70;2.20;;;15.90;99.90;;;;;;5049540;28;20552;-56
2022/06/02 01:36:14;;;;;;;7.07;3.15;;;15.80;99.90;;;;;;5035468;28;20413;-62
2022/06/02 01:39:00;;;;;;;6.88;3.20;;;15.70;99.90;;;;;;4976487;28;20422;-61
2022/06/02 01:41:45;;;;;;;5.90;3.10;;;15.70;99.90;;;;;;5049061;28;20921;-57
2022/06/02 01:44:36;;;;;;;8.80;3.50;;;15.70;99.90;;;;;;5049686;28;20417;-59
2022/06/02 01:47:10;;;;;;;7.30;3.20;;;15.70;99.90;;;;;;5048133;28;20941;-62
2022/06/02 01:49:57;;;;;;;7.53;3.65;;;15.60;99.90;;;;;;5048973;28;20374;-62
2022/06/02 01:52:29;;;;;;;6.10;3.20;;;15.60;99.90;;;;;;5049629;28;20412;-56
2022/06/02 01:54:57;;;;;;;6.20;3.10;;;15.70;99.90;;;;;;5050134;28;20394;-63
2022/06/02 01:57:32;;;;;;;6.30;2.70;;;15.60;99.90;;;;;;5049345;28;20393;-58
2022/06/02 02:00:31;;;;;;;8.32;3.25;;;15.60;99.90;;;;;;5049522;28;20416;-62
2022/06/02 02:03:02;;;;;;;6.68;3.20;;;15.60;99.90;;;;;;5023983;28;20755;-60
2022/06/02 02:05:51;;;;;;;7.32;3.50;;;15.50;99.90;;;;;;5048497;28;20393;-60
2022/06/02 02:08:26;;;;;;;6.55;3.22;;;15.40;99.90;;;;;;5049471;28;20490;-62
2022/06/02 02:14:57;;;;;;;7.80;2.70;;;15.50;99.90;;;;;;5000478;28;20407;-61
2022/06/02 02:18:21;;;;;;;5.80;2.80;;;15.60;99.90;;;;;;5048794;28;20781;-57
2022/06/02 02:21:32;;;;;;;5.90;2.50;;;15.60;99.90;;;;;;5049087;28;20853;-61
2022/06/02 02:24:13;;;;;;;7.10;3.20;;;15.50;99.90;;;;;;5049085;28;21188;-61
2022/06/02 02:27:06;;;;;;;7.30;3.08;;;15.40;99.90;;;;;;5048298;28;20398;-62
2022/06/02 02:30:10;;;;;;;8.30;2.55;;;15.30;99.90;;;;;;5048296;28;20404;-62
2022/06/02 02:33:22;;;;;;;7.93;2.60;;;15.20;99.90;;;;;;4967279;28;20778;-62
2022/06/02 02:36:30;;;;;;;8.60;2.70;;;15.10;99.90;;;;;;5039622;28;20433;-61
2022/06/02 02:39:17;;;;;;;6.90;2.40;;;14.90;99.90;;;;;;5049567;28;20472;-60
2022/06/02 02:42:25;;;;;;;6.03;2.60;;;14.90;99.90;;;;;;5052757;28;20420;-60
2022/06/02 02:45:36;;;;;;;7.77;2.60;;;14.90;99.90;;;;;;5052782;28;20420;-60
2022/06/02 02:55:17;;;;;;;5.90;2.60;;;15.00;99.90;;;;;;5044238;28;20409;-61
2022/06/02 02:58:16;;;;;;;6.43;2.35;;;15.10;99.90;;;;;;4953404;28;20412;-61
2022/06/02 03:01:21;;;;;;;6.60;2.40;;;15.20;99.90;;;;;;5052255;28;20415;-61
2022/06/02 03:04:15;;;;;;;6.70;2.60;;;15.30;99.90;;;;;;5051872;28;20703;-60
2022/06/02 03:06:42;;;;;;;6.60;2.60;;;15.30;99.90;;;;;;5051842;28;20428;-61
2022/06/02 03:09:08;;;;;;;6.88;2.90;;;15.40;99.90;;;;;;5052946;28;20381;-62
2022/06/02 03:11:46;;;;;;;6.60;2.60;;;15.40;99.90;;;;;;5052218;28;20491;-61
2022/06/02 03:14:20;;;;;;;6.20;2.60;;;15.30;99.90;;;;;;5052913;28;20468;-60
2022/06/02 03:17:11;;;;;;;7.90;2.90;;;15.30;99.90;;;;;;5051284;28;20401;-60
2022/06/02 03:20:03;;;;;;;7.78;2.75;;;15.30;99.90;;;;;;5037283;28;20413;-61
2022/06/02 03:22:49;;;;;;;6.27;2.80;;;15.30;99.90;;;;;;5051219;28;20453;-61
2022/06/02 03:25:33;;;;;;;7.00;2.70;;;15.30;99.90;;;;;;5052189;28;20389;-60
2022/06/02 03:28:04;;;;;;;5.90;2.50;;;15.30;99.90;;;;;;5051500;28;20393;-60
2022/06/02 03:30:42;;;;;;;6.20;2.67;;;15.30;99.90;;;;;;5051340;28;20397;-61
2022/06/02 03:33:26;;;;;;;6.78;2.83;;;13.90;99.90;;;;;;5051939;28;20389;-61
2022/06/02 03:36:04;;;;;;;6.75;2.80;;;15.20;99.90;;;;;;5051521;28;20423;-61
2022/06/02 03:39:01;;;;;;;6.75;2.65;;;15.20;99.90;;;;;;5050958;28;20430;-62
2022/06/02 03:41:52;;;;;;;7.72;3.00;;;15.20;99.90;;;;;;5050880;28;20486;-55
2022/06/02 03:44:40;;;;;;;8.18;3.08;;;15.20;99.90;;;;;;5049931;28;20413;-61
2022/06/02 03:47:37;;;;;;;6.15;2.58;;;15.20;99.90;;;;;;5051073;28;20405;-61
2022/06/02 03:50:42;;;;;;;6.37;2.83;;;15.20;99.90;;;;;;5050690;28;20378;-62
2022/06/02 03:53:13;;;;;;;7.10;3.20;;;15.20;99.90;;;;;;5050681;28;20471;-60
2022/06/02 03:55:44;;;;;;;6.20;3.05;;;15.20;99.90;;;;;;5051169;28;20473;-61
2022/06/02 03:58:35;;;;;;;7.70;3.17;;;15.30;99.90;;;;;;5051142;28;20443;-60
2022/06/02 04:01:04;;;;;;;6.90;2.90;;;15.20;99.90;;;;;;5039987;28;20464;-61
2022/06/02 04:03:42;;;;;;;7.88;2.60;;;15.30;99.90;;;;;;5050063;28;20456;-60
2022/06/02 04:06:26;;;;;;;6.53;3.00;;;15.20;99.90;;;;;;5049580;28;20439;-60
2022/06/02 04:08:54;;;;;;;6.13;2.67;;;15.10;99.90;;;;;;5050885;28;20416;-61
2022/06/02 04:14:43;;;;;;;6.80;2.80;;;14.90;99.90;;;;;;5047871;28;20388;-61
2022/06/02 04:17:26;;;;;;;6.30;2.30;;;14.70;99.90;;;;;;5050878;28;20397;-61
2022/06/02 04:23:28;;;;;;;7.20;2.55;;;14.60;99.90;;;;;;5049143;28;20460;-60
2022/06/02 04:26:10;;;;;;;6.57;2.42;;;14.60;99.90;;;;;;5032043;28;20422;-62
2022/06/02 04:29:11;;;;;;;6.00;2.67;;;14.60;99.90;;;;;;5038600;28;20444;-62
2022/06/02 04:32:12;;;;;;;6.90;2.80;;;14.60;99.90;;;;;;5031642;28;20428;-62
2022/06/02 04:35:00;;;;;;;9.63;3.20;;;14.70;99.90;;;;;;5005508;28;20401;-61
2022/06/02 04:37:40;;;;;;;7.40;2.88;;;14.70;99.90;;;;;;5046980;28;20418;-55
2022/06/02 04:40:22;;;;;;;6.43;2.90;;;14.90;99.90;;;;;;5042966;28;21073;-61
2022/06/02 04:43:14;;;;;;;6.40;3.10;;;15.10;99.90;;;;;;5042172;28;21040;-61
2022/06/02 04:45:55;;;;;;;7.90;3.60;;;15.40;99.90;;;;;;5045164;28;20399;-60
2022/06/02 04:48:44;;;;;;;5.70;2.70;;;15.60;99.90;;;;;;5046247;28;20404;-61
2022/06/02 04:51:27;;;;;;;6.60;3.20;;;15.80;99.90;;;;;;5045748;28;20412;-61
2022/06/02 04:54:13;;;;;;;6.53;3.20;;;15.80;99.90;;;;;;5019156;28;20786;-61
2022/06/02 04:57:00;;;;;;;7.00;3.37;;;16.30;99.90;;;;;;5046762;28;20401;-59
2022/06/02 04:59:44;;;;;;;8.18;3.50;;;18.00;99.90;;;;;;5046606;28;20405;-54
2022/06/02 05:02:16;;;;;;;6.50;3.20;;;19.50;99.90;;;;;;5044820;28;20445;-60
2022/06/02 05:05:06;;;;;;;6.45;3.30;;;20.70;99.90;;;;;;5046844;28;20663;-61
2022/06/02 05:07:59;;;;;;;10.10;3.27;;;21.70;99.90;;;;;;5035077;28;20411;-61
2022/06/02 05:10:52;;;;;;;6.07;3.55;;;22.30;99.90;;;;;;5035394;28;20437;-59
2022/06/02 05:14:02;;;;;;;7.53;3.40;;;22.80;99.90;;;;;;5047567;28;20413;-62
2022/06/02 05:16:55;;;;;;;6.90;3.70;;;23.70;99.90;;;;;;5028128;28;20492;-56
2022/06/02 05:19:42;;;;;;;8.45;4.22;;;24.40;99.90;;;;;;5040744;28;20397;-61
2022/06/02 05:22:27;;;;;;;9.00;4.70;;;24.80;99.90;;;;;;5046621;28;20440;-62
2022/06/02 05:25:10;;;;;;;7.90;4.00;;;24.60;99.90;;;;;;5046377;28;20496;-62
2022/06/02 05:28:01;;;;;;;7.80;4.40;;;25.30;99.90;;;;;;5042905;28;20412;-62
2022/06/02 05:30:59;;;;;;;7.30;4.22;;;25.90;99.90;;;;;;5043652;28;20842;-60
2022/06/02 05:33:37;;;;;;;7.90;5.10;;;26.20;99.90;;;;;;5048100;28;20412;-62
2022/06/02 05:36:17;;;;;;;6.50;4.60;;;27.20;99.90;;;;;;5038879;28;20505;-62
2022/06/02 05:39:07;;;;;;;9.73;5.60;;;27.60;99.90;;;;;;5048595;28;20394;-62
2022/06/02 05:41:45;;;;;;;10.07;5.73;;;26.60;99.90;;;;;;5048424;28;20414;-62
2022/06/02 05:44:41;;;;;;;8.23;5.18;;;26.30;99.90;;;;;;5049618;28;20431;-60
2022/06/02 05:47:09;;;;;;;7.82;4.70;;;27.30;99.90;;;;;;5047923;28;20412;-62
2022/06/02 05:49:43;;;;;;;7.38;5.22;;;26.50;99.90;;;;;;5048442;28;20397;-63
2022/06/02 05:52:29;;;;;;;7.70;4.47;;;26.30;99.90;;;;;;5048648;28;20754;-64
2022/06/02 05:55:13;;;;;;;7.07;4.50;;;25.00;99.90;;;;;;5041090;28;20440;-62
2022/06/02 05:58:10;;;;;;;7.50;4.60;;;23.80;99.90;;;;;;5048580;28;20401;-63
2022/06/02 06:01:12;;;;;;;7.75;4.80;;;23.50;99.90;;;;;;5041100;28;20397;-62
2022/06/02 06:04:29;;;;;;;12.00;5.50;;;23.40;99.90;;;;;;5046768;28;20428;-62
2022/06/02 06:07:09;;;;;;;7.88;4.35;;;24.10;99.90;;;;;;5046146;28;20431;-61
2022/06/02 06:10:07;;;;;;;6.93;5.00;;;25.00;99.90;;;;;;5047170;28;20450;-62
2022/06/02 06:13:09;;;;;;;8.30;5.50;;;26.20;99.90;;;;;;5048286;28;20425;-61
2022/06/02 06:15:59;;;;;;;7.32;5.28;;;26.10;99.90;;;;;;5048412;28;20393;-62
2022/06/02 06:18:38;;;;;;;6.80;5.18;;;26.30;99.90;;;;;;5046125;28;20385;-62
2022/06/02 06:21:57;;;;;;;7.50;4.40;;;26.70;99.90;;;;;;5048576;28;20535;-63
2022/06/02 06:24:43;;;;;;;7.13;4.20;;;27.10;99.90;;;;;;5036130;28;20421;-62
2022/06/02 06:27:40;;;;;;;6.82;4.40;;;27.00;99.90;;;;;;5047319;28;20818;-62
2022/06/02 06:30:29;;;;;;;8.30;4.28;;;27.00;99.90;;;;;;5047376;28;20397;-61
2022/06/02 06:33:15;;;;;;;7.60;4.70;;;27.40;99.90;;;;;;5047369;28;20397;-61
2022/06/02 06:35:53;;;;;;;6.80;5.10;;;27.50;99.90;;;;;;5046776;28;20429;-62
2022/06/02 06:39:10;;;;;;;7.55;4.35;;;27.50;99.90;;;;;;5047710;28;20409;-58
2022/06/02 06:42:14;;;;;;;7.73;5.17;;;28.30;99.90;;;;;;4947071;29;20410;-57
2022/06/02 06:45:35;;;;;;;8.23;5.05;;;28.20;99.90;;;;;;5009486;28;20548;-57
2022/06/02 06:48:18;;;;;;;6.90;5.30;;;28.40;99.90;;;;;;4988033;28;20403;-58
2022/06/02 06:51:03;;;;;;;6.57;4.70;;;27.90;99.90;;;;;;5035641;28;20790;-58
2022/06/02 06:53:40;;;;;;;7.93;4.40;;;27.50;99.90;;;;;;5049009;28;20405;-59
2022/06/02 06:56:12;;;;;;;7.00;5.28;;;27.80;99.90;;;;;;5048760;28;20894;-58
2022/06/02 06:59:15;;;;;;;6.90;4.95;;;28.00;99.90;;;;;;5048560;28;20416;-58
2022/06/02 07:02:03;;;;;;;7.20;4.90;;;27.20;99.90;;;;;;5028647;28;20426;-58
2022/06/02 07:04:49;;;;;;;7.78;4.82;;;26.50;99.90;;;;;;5039107;28;20444;-60
2022/06/02 07:07:29;;;;;;;8.00;5.37;;;26.50;99.90;;;;;;5048627;28;20458;-58
2022/06/02 07:10:05;;;;;;;10.60;4.35;;;26.50;99.90;;;;;;5048347;28;20401;-58
2022/06/02 07:12:51;;;;;;;7.60;4.70;;;27.90;99.90;;;;;;5047941;28;20406;-60
2022/06/02 07:15:37;;;;;;;7.80;4.15;;;28.60;99.90;;;;;;5048423;28;20478;-58
2022/06/02 07:18:30;;;;;;;9.15;4.63;;;28.90;99.90;;;;;;5048324;28;20397;-57
2022/06/02 07:21:15;;;;;;;8.07;4.40;;;30.20;99.90;;;;;;5048289;28;20385;-57
2022/06/02 07:24:04;;;;;;;6.70;5.00;;;30.40;99.90;;;;;;5047291;28;20428;-58
2022/06/02 07:27:06;;;;;;;6.97;5.43;;;29.70;99.90;;;;;;5050022;28;20409;-60
2022/06/02 07:29:46;;;;;;;6.97;5.10;;;29.90;99.90;;;;;;5031615;28;20391;-60
2022/06/02 07:32:24;;;;;;;8.00;5.78;;;29.90;99.90;;;;;;5049000;28;20400;-57
2022/06/02 07:35:36;;;;;;;7.47;5.13;;;29.20;99.90;;;;;;5051765;28;20403;-58
2022/06/02 07:38:38;;;;;;;7.47;5.90;;;29.70;99.90;;;;;;5027751;28;21027;-57
2022/06/02 07:42:03;;;;;;;7.47;5.57;;;30.50;99.90;;;;;;5009791;28;20405;-58
2022/06/02 07:44:53;;;;;;;7.70;5.40;;;29.90;99.90;;;;;;4970670;28;20866;-59
2022/06/02 07:47:45;;;;;;;7.10;5.40;;;29.60;99.90;;;;;;5020837;28;20482;-57
2022/06/02 07:50:31;;;;;;;7.07;5.47;;;29.70;99.90;;;;;;5051156;28;20389;-57
2022/06/02 07:53:15;;;;;;;6.75;5.18;;;29.70;99.90;;;;;;5019413;28;20440;-57
2022/06/02 07:56:18;;;;;;;8.02;5.55;;;29.50;99.90;;;;;;5051275;28;20412;-57
2022/06/02 07:59:16;;;;;;;8.60;5.30;;;29.70;99.90;;;;;;5050631;28;20425;-57
2022/06/02 08:02:03;;;;;;;8.60;6.30;;;29.70;99.90;;;;;;5050924;28;20866;-57
2022/06/02 08:04:50;;;;;;;8.77;5.10;;;30.30;99.90;;;;;;5047964;28;20457;-59
2022/06/02 08:07:24;;;;;;;9.35;4.20;;;30.40;99.90;;;;;;5042612;28;20453;-57
2022/06/02 08:10:11;;;;;;;7.22;4.45;;;30.40;99.90;;;;;;5050720;28;20394;-57
2022/06/02 08:13:02;;;;;;;8.60;4.97;;;29.80;99.90;;;;;;5050838;28;20889;-58
2022/06/02 08:15:52;;;;;;;12.07;5.80;;;30.00;99.90;;;;;;5051757;28;20423;-58
2022/06/02 08:18:48;;;;;;;7.20;5.80;;;30.00;99.90;;;;;;5051747;28;20385;-58
2022/06/02 08:21:41;;;;;;;10.00;5.23;;;30.70;99.90;;;;;;5051623;28;20416;-57
2022/06/02 08:24:38;;;;;;;7.30;4.93;;;30.60;99.90;;;;;;5052068;28;20429;-57
2022/06/02 08:27:39;;;;;;;6.90;5.00;;;31.70;99.90;;;;;;5067797;28;20881;-57
2022/06/02 08:30:24;;;;;;;9.27;5.10;;;30.90;99.90;;;;;;5056810;28;20384;-57
2022/06/02 08:33:21;;;;;;;7.05;4.72;;;30.40;99.90;;;;;;5068709;28;20392;-57
2022/06/02 08:35:59;;;;;;;7.15;5.43;;;31.00;99.90;;;;;;5050650;28;20378;-57
2022/06/02 08:39:02;;;;;;;7.95;4.80;;;31.30;99.90;;;;;;5051270;28;20378;-59
2022/06/02 08:41:45;;;;;;;7.20;4.60;;;31.20;99.90;;;;;;5047882;28;20384;-58
2022/06/02 08:44:26;;;;;;;7.07;4.60;;;31.20;99.90;;;;;;5050099;28;20414;-58
2022/06/02 08:47:19;;;;;;;7.57;4.55;;;31.50;99.90;;;;;;5059517;28;21018;-59
2022/06/02 08:50:00;;;;;;;7.80;4.60;;;32.70;99.90;;;;;;5051778;28;20402;-58
2022/06/02 08:53:03;;;;;;;6.30;4.60;;;31.20;99.90;;;;;;5049397;28;20539;-56
2022/06/02 08:56:06;;;;;;;7.40;4.50;;;30.90;99.90;;;;;;5050477;28;20389;-58
2022/06/02 08:58:42;;;;;;;8.73;4.88;;;31.20;99.90;;;;;;5049964;28;20384;-60
2022/06/02 09:01:30;;;;;;;7.07;4.80;;;32.30;99.90;;;;;;5050990;28;20610;-61
2022/06/02 09:04:32;;;;;;;6.57;4.20;;;33.00;99.90;;;;;;5049827;28;20417;-60
2022/06/02 09:07:25;;;;;;;7.20;4.50;;;33.80;99.90;;;;;;5050968;28;20393;-58
2022/06/02 09:09:58;;;;;;;6.93;4.47;;;33.50;99.90;;;;;;5054416;28;20384;-59
2022/06/02 09:12:55;;;;;;;5.70;1.70;;;33.90;99.90;;;;;;5052625;28;20389;-59
2022/06/02 09:15:44;;;;;;;5.70;2.40;;;33.70;99.90;;;;;;5055587;28;20376;-59
2022/06/02 09:18:10;;;;;;;8.25;4.32;;;34.30;99.90;;;;;;5070909;28;20387;-59
2022/06/02 09:20:59;;;;;;;6.40;1.70;;;34.00;99.90;;;;;;5069693;28;20764;-59
2022/06/02 09:23:46;;;;;;;7.50;1.90;;;33.90;99.90;;;;;;5061290;28;20497;-58
2022/06/02 09:26:53;;;;;;;7.10;1.80;;;33.70;99.90;;;;;;5059394;28;20945;-59
2022/06/02 09:29:21;;;;;;;6.90;2.00;;;34.10;99.90;;;;;;5015332;28;20472;-59
2022/06/02 09:32:11;;;;;;;6.40;2.17;;;33.80;99.90;;;;;;5049347;28;20399;-59
2022/06/02 09:34:55;;;;;;;6.13;1.75;;;32.70;99.90;;;;;;5049465;28;20782;-58
2022/06/02 09:37:39;;;;;;;8.02;2.10;;;32.20;99.90;;;;;;5050399;28;20382;-58
2022/06/02 09:41:06;;;;;;;5.40;1.50;;;32.40;99.90;;;;;;5054180;28;20872;-60
2022/06/02 09:43:46;;;;;;;6.10;2.30;;;32.80;99.90;;;;;;4955208;28;20494;-60
2022/06/02 09:46:34;;;;;;;9.48;2.28;;;32.80;99.90;;;;;;5050719;28;21077;-58
2022/06/02 09:49:18;;;;;;;8.82;4.50;;;32.60;99.90;;;;;;5041197;28;21150;-57
2022/06/02 09:51:58;;;;;;;7.80;4.50;;;32.30;99.90;;;;;;5044881;28;20797;-57
2022/06/02 09:54:24;;;;;;;6.85;4.72;;;32.80;99.90;;;;;;5049055;28;20389;-58
2022/06/02 09:56:55;;;;;;;8.32;5.35;;;32.20;99.90;;;;;;5047576;28;20401;-57
2022/06/02 09:59:30;;;;;;;8.70;5.75;;;31.20;99.90;;;;;;5049044;28;20480;-57
2022/06/02 10:02:17;;;;;;;7.20;4.93;;;31.10;99.90;;;;;;5048737;28;20838;-57
2022/06/02 10:04:55;;;;;;;6.72;5.13;;;31.30;99.90;;;;;;5028790;28;20789;-57
2022/06/02 10:07:28;;;;;;;8.02;4.53;;;30.90;99.90;;;;;;5039964;28;20417;-57
2022/06/02 10:10:10;;;;;;;8.88;4.97;;;31.40;99.90;;;;;;5064016;28;20388;-57
2022/06/02 10:13:01;;;;;;;7.20;5.00;;;31.60;99.90;;;;;;5049051;28;20413;-57
2022/06/02 10:16:05;;;;;;;7.97;5.10;;;31.40;99.90;;;;;;5058903;28;20431;-57
2022/06/02 10:18:49;;;;;;;6.70;4.47;;;31.40;99.90;;;;;;5056918;28;20428;-60
2022/06/02 10:21:25;;;;;;;9.47;4.70;;;30.90;99.90;;;;;;5047084;28;20393;-57
2022/06/02 10:24:21;;;;;;;6.88;4.30;;;30.70;99.90;;;;;;5049425;28;20434;-57
2022/06/02 10:27:08;;;;;;;7.07;6.22;;;30.30;99.90;;;;;;5047656;28;20389;-57
2022/06/02 10:29:56;;;;;;;6.40;5.10;;;30.30;99.90;;;;;;5045833;28;20886;-61
2022/06/02 10:32:43;;;;;;;6.80;4.90;;;30.40;99.90;;;;;;5039661;28;20448;-57
2022/06/02 10:35:27;;;;;;;7.50;6.18;;;29.80;99.90;;;;;;5046315;28;20381;-57
2022/06/02 10:37:58;;;;;;;8.13;7.32;;;28.60;99.90;;;;;;5044853;28;20892;-57
2022/06/02 10:41:13;;;;;;;10.07;6.90;;;28.50;99.90;;;;;;5046708;28;20449;-56
2022/06/02 10:44:01;;;;;;;8.20;6.50;;;27.60;99.90;;;;;;5048169;28;20420;-56
2022/06/02 10:47:09;;;;;;;7.70;6.90;;;27.10;99.90;;;;;;5047789;28;20476;-57
2022/06/02 10:49:39;;;;;;;8.30;6.80;;;26.70;99.90;;;;;;5019798;28;20451;-57
2022/06/02 10:52:23;;;;;;;7.00;6.07;;;26.80;99.90;;;;;;5048233;28;20412;-59
2022/06/02 10:55:04;;;;;;;7.40;6.60;;;26.90;99.90;;;;;;5048248;28;20389;-58
2022/06/02 10:57:50;;;;;;;9.90;6.38;;;27.20;99.90;;;;;;5048596;28;20397;-60
2022/06/02 11:00:47;;;;;;;9.30;6.20;;;27.60;99.90;;;;;;5050010;28;20460;-59
2022/06/02 11:03:33;;;;;;;8.10;6.00;;;27.90;99.90;;;;;;5053289;28;20416;-56
2022/06/02 11:06:18;;;;;;;8.07;5.70;;;27.70;99.90;;;;;;5052533;28;20392;-57
2022/06/02 11:08:47;;;;;;;8.68;5.90;;;27.70;99.90;;;;;;5048015;28;20405;-57
2022/06/02 11:11:46;;;;;;;7.50;5.35;;;27.50;99.90;;;;;;5053731;28;20423;-57
2022/06/02 11:14:20;;;;;;;7.88;6.32;;;27.60;99.90;;;;;;5052638;28;20389;-56
2022/06/02 11:16:46;;;;;;;6.87;6.10;;;27.40;99.90;;;;;;5052009;28;20393;-56
2022/06/02 11:19:41;;;;;;;8.00;5.90;;;27.20;99.90;;;;;;5053123;28;20439;-57
2022/06/02 11:22:37;;;;;;;7.20;5.90;;;27.20;99.90;;;;;;5051977;28;20397;-57
2022/06/02 11:25:22;;;;;;;7.17;6.03;;;27.20;99.90;;;;;;5052408;28;20490;-57
2022/06/02 11:28:20;;;;;;;9.35;5.70;;;27.30;99.90;;;;;;5051815;28;20443;-57
2022/06/02 11:31:30;;;;;;;7.57;4.97;;;27.40;99.90;;;;;;4998478;28;20491;-57
2022/06/02 11:33:58;;;;;;;6.40;5.63;;;27.40;99.90;;;;;;5038180;28;20802;-57
2022/06/02 11:36:33;;;;;;;7.73;6.17;;;27.50;99.90;;;;;;5052496;28;20400;-57
2022/06/02 11:39:18;;;;;;;7.30;6.30;;;27.30;99.90;;;;;;5051911;28;20377;-57
2022/06/02 11:42:12;;;;;;;6.60;5.90;;;27.30;99.90;;;;;;5051344;28;20469;-57
2022/06/02 11:45:05;;;;;;;7.50;5.70;;;27.60;99.90;;;;;;5051622;28;20417;-57
2022/06/02 11:47:45;;;;;;;7.45;5.82;;;27.30;99.90;;;;;;5052219;28;20378;-57
2022/06/02 11:50:55;;;;;;;10.10;5.60;;;27.30;99.90;;;;;;5052477;28;20494;-58
2022/06/02 11:53:52;;;;;;;8.50;5.90;;;27.50;99.90;;;;;;5052206;28;20455;-58
2022/06/02 11:56:44;;;;;;;7.20;5.90;;;27.30;99.90;;;;;;5040777;28;20864;-57
2022/06/02 11:59:51;;;;;;;8.38;5.45;;;27.30;99.90;;;;;;5062688;28;20476;-57
2022/06/02 12:02:31;;;;;;;7.15;5.53;;;26.80;99.90;;;;;;5011406;28;20453;-58
2022/06/02 12:05:25;;;;;;;8.13;5.20;;;27.30;99.90;;;;;;5046430;28;20908;-58
2022/06/02 12:08:16;;;;;;;8.10;5.93;;;27.50;99.90;;;;;;5050691;28;20413;-58
2022/06/02 12:11:16;;;;;;;8.25;6.10;;;27.80;99.90;;;;;;5049203;28;20867;-57
2022/06/02 12:13:56;;;;;;;7.70;5.20;;;27.70;99.90;;;;;;5049353;28;20421;-58
2022/06/02 12:16:59;;;;;;;7.75;5.90;;;27.90;99.90;;;;;;5050461;28;20397;-58
2022/06/02 12:19:49;;;;;;;8.30;5.55;;;27.60;99.90;;;;;;5051333;28;20394;-58
2022/06/02 12:22:53;;;;;;;15.02;5.80;;;27.70;99.90;;;;;;5051817;28;20414;-58
2022/06/02 12:25:33;;;;;;;8.32;5.80;;;27.90;99.90;;;;;;5050880;28;20484;-58
2022/06/02 12:28:33;;;;;;;7.40;5.60;;;27.70;99.90;;;;;;5051183;28;20384;-58
2022/06/02 12:31:17;;;;;;;11.37;5.37;;;27.80;99.90;;;;;;5049454;28;20389;-58
2022/06/02 12:33:54;;;;;;;9.02;5.40;;;27.80;99.90;;;;;;5050470;28;20420;-57
2022/06/02 12:36:35;;;;;;;9.80;5.70;;;27.50;99.90;;;;;;5050767;28;20389;-57
2022/06/02 12:39:19;;;;;;;6.93;5.50;;;26.60;99.90;;;;;;5051228;28;20381;-58
2022/06/02 12:42:22;;;;;;;8.20;6.10;;;26.70;99.90;;;;;;5050492;28;20381;-58
2022/06/02 12:45:26;;;;;;;9.10;6.50;;;26.80;99.90;;;;;;5050260;28;20427;-58
2022/06/02 12:48:00;;;;;;;8.20;6.60;;;27.00;99.90;;;;;;5050536;28;20412;-58
2022/06/02 12:50:48;;;;;;;10.10;6.90;;;27.30;99.90;;;;;;5051207;28;20842;-58
2022/06/02 12:53:40;;;;;;;11.00;6.53;;;27.70;99.90;;;;;;5051448;28;20428;-57
2022/06/02 12:56:54;;;;;;;11.18;6.40;;;27.60;99.90;;;;;;5051292;28;20473;-58
2022/06/02 13:00:07;;;;;;;9.75;6.75;;;27.40;99.90;;;;;;5042170;28;20603;-58
2022/06/02 13:03:01;;;;;;;7.45;6.30;;;27.30;99.90;;;;;;5041395;28;20509;-60
2022/06/02 13:05:52;;;;;;;6.70;5.60;;;27.50;99.90;;;;;;5048716;28;20417;-58
2022/06/02 13:08:21;;;;;;;7.90;6.18;;;27.90;99.90;;;;;;5012202;28;20404;-57
2022/06/02 13:11:15;;;;;;;8.70;6.70;;;27.40;99.90;;;;;;5049393;28;20390;-59
2022/06/02 13:14:04;;;;;;;8.02;6.22;;;27.20;99.90;;;;;;5043500;28;20402;-59
2022/06/02 13:16:55;;;;;;;7.18;6.00;;;27.50;99.90;;;;;;5050866;28;20380;-57
2022/06/02 13:19:41;;;;;;;7.80;6.40;;;27.50;99.90;;;;;;5050650;28;20396;-57
2022/06/02 13:22:06;;;;;;;8.27;7.37;;;27.30;99.90;;;;;;5050041;28;20392;-59
2022/06/02 13:25:15;;;;;;;8.80;6.90;;;27.20;99.90;;;;;;5049463;28;20428;-59
2022/06/02 13:27:50;;;;;;;10.30;7.20;;;26.70;99.90;;;;;;5049830;28;20627;-55
2022/06/02 13:30:25;;;;;;;9.32;7.22;;;26.20;99.90;;;;;;5049830;28;20409;-55
2022/06/02 13:32:59;;;;;;;8.65;7.45;;;26.10;99.90;;;;;;5049383;28;20436;-56
2022/06/02 13:35:43;;;;;;;11.07;6.97;;;26.00;99.90;;;;;;5050267;28;20380;-55
2022/06/02 13:38:18;;;;;;;7.63;6.60;;;26.00;99.90;;;;;;5050347;28;20373;-55
2022/06/02 13:41:11;;;;;;;10.10;6.60;;;26.30;99.90;;;;;;5049209;28;20918;-57
2022/06/02 13:44:13;;;;;;;7.30;6.50;;;26.80;99.90;;;;;;5049728;28;20406;-60
2022/06/02 13:47:09;;;;;;;10.43;6.03;;;27.30;99.90;;;;;;5049019;28;20440;-58
2022/06/02 13:50:02;;;;;;;7.43;5.78;;;27.50;99.90;;;;;;5049613;28;20388;-60
2022/06/02 13:53:15;;;;;;;7.30;6.37;;;27.40;99.90;;;;;;5049735;28;20455;-58
2022/06/02 13:58:57;;;;;;;7.40;6.68;;;26.60;99.90;;;;;;5048984;28;20434;-58
2022/06/02 14:01:41;;;;;;;8.73;7.40;;;26.40;99.90;;;;;;5049480;28;20381;-55
2022/06/02 14:04:32;;;;;;;9.68;6.53;;;26.40;99.90;;;;;;5049634;28;20905;-56
2022/06/02 14:07:14;;;;;;;7.38;6.57;;;26.40;99.90;;;;;;5048586;28;20393;-55
2022/06/02 14:09:40;;;;;;;6.90;6.20;;;26.60;99.90;;;;;;5048710;28;20761;-56
2022/06/02 14:12:26;;;;;;;9.48;6.40;;;26.60;99.90;;;;;;5031788;28;20399;-55
2022/06/02 14:15:11;;;;;;;7.55;6.70;;;26.50;99.90;;;;;;5031077;28;20815;-56
2022/06/02 14:17:55;;;;;;;11.50;6.88;;;26.70;99.90;;;;;;5049139;28;20839;-58
2022/06/02 14:20:39;;;;;;;7.80;6.50;;;26.70;99.90;;;;;;5049536;28;20847;-58
2022/06/02 14:23:18;;;;;;;8.30;6.70;;;27.00;99.90;;;;;;5049614;28;20418;-56
2022/06/02 14:25:59;;;;;;;8.20;6.40;;;26.50;99.90;;;;;;5048876;28;20395;-56
2022/06/02 14:28:54;;;;;;;7.80;6.30;;;25.90;99.90;;;;;;5049787;28;20461;-56
2022/06/02 14:31:22;;;;;;;7.40;6.60;;;25.60;99.90;;;;;;5048698;28;20866;-56
2022/06/02 14:34:04;;;;;;;9.20;6.57;;;25.50;99.90;;;;;;5048721;28;20477;-55
2022/06/02 14:36:43;;;;;;;8.40;6.30;;;25.40;99.90;;;;;;5049153;28;20464;-55
2022/06/02 14:39:22;;;;;;;6.70;6.00;;;25.60;99.90;;;;;;5049063;28;20401;-55
2022/06/02 14:42:02;;;;;;;7.70;6.10;;;25.80;99.90;;;;;;5048361;28;20388;-56
2022/06/02 14:44:54;;;;;;;6.80;6.10;;;26.20;99.90;;;;;;5048984;28;20401;-59
2022/06/02 14:47:38;;;;;;;8.65;6.15;;;26.60;99.90;;;;;;5048977;28;20392;-58
2022/06/02 14:50:36;;;;;;;6.63;5.90;;;26.90;99.90;;;;;;5049541;28;20443;-58
2022/06/02 14:53:53;;;;;;;8.18;6.15;;;27.20;99.90;;;;;;5048619;28;20410;-58
2022/06/02 14:56:47;;;;;;;8.50;6.28;;;27.10;99.90;;;;;;5048274;28;20401;-56